Portada
METAR-TAF:

METAR-TAF

Aeroports :

Clinton, Arkansas, Estats Units d'Amèrica

latitud: 35-35-52N, longitud: 092-27-06W, altitud: 157 m

Observació

L'informe es va fer fa 25 minuts, a les 15:35 UTC
Vent 3 kt amb direcció variable
Temperatura 7°C
Humitat 93%
Pressió 1020 hPa
Visibilitat: 14.5 km
Cel cobert a una alçada de 1400 ft

METAR: KCCA 221535Z AUTO VRB03KT 9SM OVC014 07/06 A3011 RMK AO2

Hora: 10:00 (16:00 UTC)


TAF: manca

Observacions i pronòstics meteorològics de més de 4000 aeroports (METAR i TAF).

Les estacions disponibles són els punts grocs i vermells al mapa.

Posi el ratolí al punt desitjat per veure el nom de l'estació.

Feu clic per veure les observacions i els pronòstics meteorològics.

Per canviar el mapa: feu clic els botons verds amb una creu de color negre per apropar; al botó verd amb un guió per allunyar la imatge; o en les fletxes verdes per a mapes adjacents.


METAR-TAF: